Raleigh, NC

7:38 PM EST on March 06, 2015 (GMT -0500)
The Place @ Harrington Grove | Change Station
CLOSE
Current Station
Personal Weather Station
Location: Raleigh, NC
Elevation: 489 ft
Nearby Weather Stations

Elev 489 ft 35.93 °N, 78.74 °W | Updated 14 seconds ago

Clear
Clear
28.2 °F
Feels Like 28 °F
N
1.1
Wind Variable Wind from ESE
Gusts 1.7 mph

Today
High -- | Low -- °F
--% Chance of Precip.
Yesterday
High -- | Low -- °F
Precip. -- in
6:38 AM 6:14 PM
Full, 99% visible
Pressure 30.44 in
Visibility 10.0 miles
Clouds Few 25000 ft
Windchill 28 °F
Dew Point 18 °F
Humidity 65%
Rainfall in
Snow Depth Not available.
UV 0 out of 12
Pollen 3.70 out of 12
Air Quality Not available.
Flu Activity Not available.
METAR KRDU 062351Z 00000KT 10SM FEW250 00/M12 A3043 RMK AO2 SLP308 T00001122 10028 20000 53003

More Conditions Fewer Conditions

Pressure 30.44 in
Visibility 10.0 miles
Clouds Few 25000 ft
Windchill 28 °F
Dew Point 18 °F
Humidity 65%
Rainfall in
Snow Depth Not available.
UV 0 out of 12
Pollen 3.70 out of 12
Air Quality Not available.
Flu Activity Not available.
METAR KRDU 062351Z 00000KT 10SM FEW250 00/M12 A3043 RMK AO2 SLP308 T00001122 10028 20000 53003

More Conditions Fewer Conditions

10-Day Weather Forecast

Almanac

Astronomy

Mar. 06, 2015 Rise Set
Actual Time
Civil Twilight
Nautical Twilight
Astronomical Twilight
Moon
Length of Visible Light
Length of Day
Tomorrow will be .
, % of the Moon is Illuminated

Today's Extremes

State Highs State Lows

Community

WunderPhotos

Upload Photos

1,803,469 photos uploaded!

WunderBlogs® & News

Nearby

Air Quality

  Air Quality AQ Index Pollutant
Not available.

Snow Depth

Station Depth Elevation

Earthquake Activity

City Distance Mag. Time & Date
Minimum magnitude displayed is 2.5.

Coastal Water Temperatures

Place Temperature

Nearby Weather Stations